createdAt,value
2019-02-14T00:01:47.321Z,8.10
2019-02-14T00:04:16.173Z,8.00
2019-02-14T00:06:45.087Z,7.40
2019-02-14T00:09:13.896Z,10.57
2019-02-14T00:11:42.709Z,12.30
2019-02-14T00:14:11.569Z,10.37
2019-02-14T00:16:40.411Z,9.70
2019-02-14T00:19:09.204Z,8.80
2019-02-14T00:21:38.000Z,9.08
2019-02-14T00:24:06.811Z,7.70
2019-02-14T00:26:35.615Z,9.47
2019-02-14T00:29:04.475Z,7.40
2019-02-14T00:31:33.282Z,7.20
2019-02-14T00:34:02.081Z,7.53
2019-02-14T00:36:30.918Z,9.73
2019-02-14T00:38:59.849Z,7.47
2019-02-14T00:41:28.865Z,8.13
2019-02-14T00:43:57.673Z,8.23
2019-02-14T00:46:26.626Z,7.67
2019-02-14T00:48:55.429Z,8.60
2019-02-14T00:51:24.268Z,6.47
2019-02-14T00:53:53.056Z,7.40
2019-02-14T00:56:21.856Z,7.58
2019-02-14T00:58:50.663Z,6.63
2019-02-14T01:01:20.296Z,7.20
2019-02-14T01:03:49.166Z,7.00
2019-02-14T01:06:18.060Z,8.20
2019-02-14T01:08:46.942Z,7.27
2019-02-14T01:11:15.808Z,7.27
2019-02-14T01:13:44.623Z,7.63
2019-02-14T01:16:13.422Z,7.75
2019-02-14T01:18:42.227Z,7.30
2019-02-14T01:21:11.204Z,7.87
2019-02-14T01:23:40.011Z,7.90
2019-02-14T01:26:08.904Z,7.20
2019-02-14T01:28:37.798Z,8.00
2019-02-14T01:31:06.681Z,10.13
2019-02-14T01:33:35.489Z,8.10
2019-02-14T01:36:04.366Z,8.43
2019-02-14T01:38:33.183Z,7.87
2019-02-14T01:41:02.055Z,8.07
2019-02-14T01:43:31.008Z,7.33
2019-02-14T01:45:59.800Z,6.50
2019-02-14T01:48:28.633Z,8.63
2019-02-14T01:50:57.415Z,8.93
2019-02-14T01:53:26.217Z,8.33
2019-02-14T01:55:55.013Z,10.70
2019-02-14T01:58:23.894Z,10.13
2019-02-14T02:00:52.767Z,9.13
2019-02-14T02:03:21.965Z,9.70
2019-02-14T02:05:51.164Z,8.83
2019-02-14T02:08:20.203Z,10.85
2019-02-14T02:10:48.979Z,7.95
2019-02-14T02:13:17.822Z,8.77
2019-02-14T02:15:46.598Z,9.53
2019-02-14T02:18:15.374Z,8.93
2019-02-14T02:20:44.201Z,9.48
2019-02-14T02:23:12.985Z,8.57
2019-02-14T02:25:41.757Z,7.10
2019-02-14T02:28:10.608Z,6.70
2019-02-14T02:30:39.392Z,7.03
2019-02-14T02:33:08.153Z,7.40
2019-02-14T02:35:36.932Z,5.73
2019-02-14T02:38:05.715Z,7.58
2019-02-14T02:40:34.620Z,7.77
2019-02-14T02:43:03.393Z,7.73
2019-02-14T02:45:32.173Z,8.70
2019-02-14T02:48:00.958Z,7.57
2019-02-14T02:50:29.760Z,7.63
2019-02-14T02:52:58.544Z,6.63
2019-02-14T02:55:27.341Z,9.90
2019-02-14T02:57:56.126Z,9.63
2019-02-14T03:00:24.999Z,7.47
2019-02-14T03:02:53.753Z,8.83
2019-02-14T03:05:22.536Z,8.17
2019-02-14T03:07:51.386Z,10.20
2019-02-14T03:10:20.181Z,8.83
2019-02-14T03:12:48.957Z,9.87
2019-02-14T03:15:17.901Z,12.00
2019-02-14T03:17:46.692Z,11.03
2019-02-14T03:20:15.533Z,12.23
2019-02-14T03:22:44.325Z,11.00
2019-02-14T03:25:15.296Z,9.07
2019-02-14T03:27:44.098Z,8.83
2019-02-14T03:30:13.804Z,10.17
2019-02-14T03:32:42.907Z,8.83
2019-02-14T03:35:11.917Z,9.70
2019-02-14T03:37:40.827Z,8.38
2019-02-14T03:40:10.979Z,8.53
2019-02-14T03:42:39.978Z,8.60
2019-02-14T03:45:12.014Z,8.78
2019-02-14T03:47:40.793Z,8.43
2019-02-14T03:50:09.716Z,9.87
2019-02-14T03:52:38.669Z,9.07
2019-02-14T03:55:08.139Z,7.12
2019-02-14T03:57:37.175Z,7.33
2019-02-14T04:00:09.378Z,8.00
2019-02-14T04:02:38.524Z,7.40
2019-02-14T04:05:07.635Z,9.10
2019-02-14T04:07:36.404Z,7.50
2019-02-14T04:10:05.959Z,8.40
2019-02-14T04:12:35.321Z,8.05
2019-02-14T04:15:04.589Z,9.93
2019-02-14T04:17:33.355Z,7.70
2019-02-14T04:20:02.141Z,8.90
2019-02-14T04:22:31.040Z,9.37
2019-02-14T04:24:59.905Z,8.50
2019-02-14T04:27:28.672Z,8.97
2019-02-14T04:29:57.510Z,9.23
2019-02-14T04:32:26.655Z,9.63
2019-02-14T04:34:55.522Z,9.23
2019-02-14T04:37:24.408Z,9.17
2019-02-14T04:39:53.278Z,7.93
2019-02-14T04:42:22.356Z,8.40
2019-02-14T04:44:51.207Z,9.10
2019-02-14T04:47:20.012Z,8.90
2019-02-14T04:49:48.820Z,10.63
2019-02-14T04:52:17.735Z,9.33
2019-02-14T04:54:46.567Z,10.93
2019-02-14T04:57:15.402Z,10.50
2019-02-14T04:59:44.206Z,10.97
2019-02-14T05:02:13.026Z,10.10
2019-02-14T05:04:41.890Z,9.50
2019-02-14T05:07:10.775Z,10.33
2019-02-14T05:09:39.589Z,9.97
2019-02-14T05:12:08.389Z,9.20
2019-02-14T05:14:37.187Z,9.20
2019-02-14T05:17:06.015Z,9.57
2019-02-14T05:19:34.907Z,9.23
2019-02-14T05:22:03.848Z,8.50
2019-02-14T05:24:32.667Z,11.10
2019-02-14T05:27:01.486Z,9.73
2019-02-14T05:29:30.284Z,7.30
2019-02-14T05:31:59.098Z,10.40
2019-02-14T05:34:28.741Z,10.00
2019-02-14T05:36:57.556Z,10.00
2019-02-14T05:39:27.556Z,12.00
2019-02-14T05:41:56.317Z,13.77
2019-02-14T05:44:25.113Z,10.07
2019-02-14T05:46:53.913Z,8.20
2019-02-14T05:49:22.698Z,9.70
2019-02-14T05:51:51.496Z,11.33
2019-02-14T05:54:20.307Z,9.73
2019-02-14T05:56:49.138Z,9.87
2019-02-14T05:59:18.007Z,10.43
2019-02-14T06:01:46.876Z,10.00
2019-02-14T06:04:15.667Z,11.67
2019-02-14T06:06:44.593Z,9.53
2019-02-14T06:09:13.401Z,9.47
2019-02-14T06:11:42.194Z,10.83
2019-02-14T06:14:11.090Z,11.38
2019-02-14T06:16:39.884Z,10.10
2019-02-14T06:19:08.717Z,9.70
2019-02-14T06:21:37.591Z,11.17
2019-02-14T06:24:06.409Z,11.87
2019-02-14T06:26:35.207Z,9.63
2019-02-14T06:29:04.089Z,10.33
2019-02-14T06:31:32.884Z,8.53
2019-02-14T06:34:01.908Z,8.90
2019-02-14T06:36:30.982Z,8.80
2019-02-14T06:38:59.875Z,8.97
2019-02-14T06:41:28.699Z,8.23
2019-02-14T06:43:57.502Z,7.70
2019-02-14T06:46:26.289Z,9.13
2019-02-14T06:48:55.257Z,8.35
2019-02-14T06:51:24.042Z,6.97
2019-02-14T06:53:52.935Z,9.83
2019-02-14T06:56:21.729Z,8.47
2019-02-14T06:58:50.532Z,8.05
2019-02-14T07:01:19.328Z,10.90
2019-02-14T07:03:48.223Z,8.40
2019-02-14T07:06:17.017Z,8.33
2019-02-14T07:08:45.844Z,9.17
2019-02-14T07:11:14.637Z,8.23
2019-02-14T07:13:43.550Z,10.80
2019-02-14T07:16:12.441Z,9.17
2019-02-14T07:18:41.250Z,10.13
2019-02-14T07:21:10.048Z,9.10
2019-02-14T07:23:38.855Z,10.97
2019-02-14T07:26:07.660Z,9.10
2019-02-14T07:28:36.547Z,9.20
2019-02-14T07:31:05.525Z,8.97
2019-02-14T07:33:34.327Z,11.73
2019-02-14T07:36:03.126Z,9.53
2019-02-14T07:38:31.931Z,9.80
2019-02-14T07:41:00.739Z,10.73
2019-02-14T07:43:29.603Z,10.70
2019-02-14T07:45:58.490Z,11.10
2019-02-14T07:48:27.300Z,13.00
2019-02-14T07:50:56.107Z,12.77
2019-02-14T07:53:24.989Z,13.23
2019-02-14T07:55:53.803Z,12.33
2019-02-14T07:58:22.675Z,11.47
2019-02-14T08:00:51.543Z,10.90
2019-02-14T08:03:20.399Z,11.33
2019-02-14T08:05:49.210Z,11.83
2019-02-14T08:08:18.055Z,13.03
2019-02-14T08:10:46.928Z,11.47
2019-02-14T08:13:15.719Z,11.27
2019-02-14T08:15:44.618Z,10.80
2019-02-14T08:18:13.436Z,10.37
2019-02-14T08:20:42.224Z,10.17
2019-02-14T08:23:11.051Z,12.17
2019-02-14T08:25:39.859Z,11.46
2019-02-14T08:28:08.746Z,11.50
2019-02-14T08:30:37.553Z,12.90
2019-02-14T08:33:06.421Z,15.47
2019-02-14T08:35:35.458Z,12.55
2019-02-14T08:38:05.118Z,12.10
2019-02-14T08:40:33.998Z,13.03
2019-02-14T08:43:02.993Z,11.73
2019-02-14T08:45:31.882Z,11.63
2019-02-14T08:48:00.782Z,11.45
2019-02-14T08:50:29.649Z,11.17
2019-02-14T08:52:58.458Z,10.37
2019-02-14T08:55:27.244Z,12.10
2019-02-14T08:57:56.047Z,10.70
2019-02-14T09:00:24.933Z,10.60
2019-02-14T09:02:53.754Z,11.20
2019-02-14T09:05:22.566Z,12.27
2019-02-14T09:07:54.605Z,12.63
2019-02-14T09:10:21.910Z,13.93
2019-02-14T09:12:50.897Z,11.83
2019-02-14T09:15:19.795Z,12.47
2019-02-14T09:17:48.607Z,11.67
2019-02-14T09:20:17.528Z,9.87
2019-02-14T09:22:46.407Z,10.75
2019-02-14T09:25:15.198Z,11.40
2019-02-14T09:27:44.132Z,11.27
2019-02-14T09:30:13.164Z,11.20
2019-02-14T09:32:42.179Z,11.97
2019-02-14T09:35:11.247Z,13.17
2019-02-14T09:37:40.123Z,12.13
2019-02-14T09:40:10.214Z,12.93
2019-02-14T09:42:39.022Z,10.73
2019-02-14T09:45:09.838Z,11.65
2019-02-14T09:47:38.614Z,12.37
2019-02-14T09:50:08.656Z,10.58
2019-02-14T09:52:37.559Z,13.17
2019-02-14T09:55:06.950Z,10.90
2019-02-14T09:57:35.749Z,10.30
2019-02-14T10:00:05.175Z,13.57
2019-02-14T10:02:33.971Z,11.30
2019-02-14T10:05:02.764Z,9.90
2019-02-14T10:07:31.569Z,9.13
2019-02-14T10:10:03.174Z,11.38
2019-02-14T10:12:31.936Z,10.37
2019-02-14T10:15:00.732Z,9.00
2019-02-14T10:17:29.624Z,9.50
2019-02-14T10:19:58.449Z,10.07
2019-02-14T10:22:27.316Z,10.03
2019-02-14T10:24:56.118Z,9.30
2019-02-14T10:27:25.077Z,10.63
2019-02-14T10:29:53.907Z,10.10
2019-02-14T10:32:22.699Z,9.60
2019-02-14T10:34:51.476Z,11.10
2019-02-14T10:37:20.293Z,11.67
2019-02-14T10:39:49.077Z,9.93
2019-02-14T10:42:17.876Z,11.28
2019-02-14T10:44:46.760Z,13.53
2019-02-14T10:47:15.728Z,11.03
2019-02-14T10:49:44.535Z,9.70
2019-02-14T10:52:13.350Z,9.78
2019-02-14T10:54:42.313Z,13.33
2019-02-14T10:57:11.100Z,12.70
2019-02-14T10:59:39.910Z,12.87
2019-02-14T11:02:08.774Z,10.68
2019-02-14T11:04:37.641Z,13.03
2019-02-14T11:07:06.492Z,14.40
2019-02-14T11:09:35.300Z,12.73
2019-02-14T11:12:04.209Z,12.97
2019-02-14T11:14:33.149Z,13.47
2019-02-14T11:17:01.990Z,11.10
2019-02-14T11:19:30.799Z,11.13
2019-02-14T11:21:59.610Z,12.70
2019-02-14T11:24:28.402Z,11.13
2019-02-14T11:26:57.189Z,11.40
2019-02-14T11:29:25.988Z,12.20
2019-02-14T11:31:54.786Z,10.80
2019-02-14T11:34:23.655Z,11.40
2019-02-14T11:36:52.447Z,12.80
2019-02-14T11:39:21.270Z,11.87
2019-02-14T11:41:50.054Z,11.23
2019-02-14T11:44:18.869Z,11.77
2019-02-14T11:46:51.474Z,11.93
2019-02-14T11:49:18.248Z,9.30
2019-02-14T11:51:47.054Z,9.80
2019-02-14T11:54:16.658Z,12.17
2019-02-14T11:56:45.452Z,10.20
2019-02-14T11:59:14.618Z,9.23
2019-02-14T12:01:43.513Z,8.80
2019-02-14T12:04:12.403Z,10.10
2019-02-14T12:06:41.187Z,9.87
2019-02-14T12:09:10.183Z,10.40
2019-02-14T12:11:39.057Z,9.70
2019-02-14T12:14:07.932Z,11.10
2019-02-14T12:16:36.834Z,6.70
2019-02-14T12:19:05.627Z,8.70
2019-02-14T12:21:34.417Z,7.40
2019-02-14T12:24:03.207Z,6.80
2019-02-14T12:26:32.103Z,6.43
2019-02-14T12:29:00.963Z,7.58
2019-02-14T12:31:29.862Z,6.73
2019-02-14T12:33:58.734Z,7.70
2019-02-14T12:36:27.602Z,6.60
2019-02-14T12:38:56.368Z,7.22
2019-02-14T12:41:25.167Z,8.40
2019-02-14T12:43:53.946Z,6.43
2019-02-14T12:46:22.811Z,7.80
2019-02-14T12:48:51.744Z,6.67
2019-02-14T12:51:20.568Z,6.90
2019-02-14T12:53:49.346Z,6.03
2019-02-14T12:56:18.139Z,7.20
2019-02-14T12:58:47.207Z,6.85
2019-02-14T13:01:16.021Z,7.80
2019-02-14T13:03:44.803Z,7.50
2019-02-14T13:06:13.669Z,6.73
2019-02-14T13:08:42.461Z,6.63
2019-02-14T13:11:11.257Z,6.05
2019-02-14T13:13:40.055Z,6.63
2019-02-14T13:16:08.914Z,7.00
2019-02-14T13:18:37.695Z,6.13
2019-02-14T13:21:06.571Z,6.05
2019-02-14T13:23:35.378Z,6.87
2019-02-14T13:26:04.188Z,6.53
2019-02-14T13:28:33.424Z,5.40
2019-02-14T13:31:02.366Z,6.80
2019-02-14T13:33:31.370Z,6.73
2019-02-14T13:36:00.159Z,5.80
2019-02-14T13:38:28.983Z,5.78
2019-02-14T13:40:57.875Z,4.17
2019-02-14T13:43:26.657Z,5.20
2019-02-14T13:45:55.629Z,5.37
2019-02-14T13:48:24.452Z,5.37
2019-02-14T13:50:53.346Z,5.00
2019-02-14T13:53:22.246Z,4.63
2019-02-14T13:55:51.176Z,4.60
2019-02-14T13:58:20.013Z,5.40
2019-02-14T14:00:48.814Z,4.70
2019-02-14T14:03:17.675Z,4.12
2019-02-14T14:05:46.516Z,4.00
2019-02-14T14:08:15.313Z,4.23
2019-02-14T14:10:44.285Z,4.60
2019-02-14T14:13:13.140Z,4.40
2019-02-14T14:15:42.017Z,3.93
2019-02-14T14:18:10.814Z,4.80
2019-02-14T14:20:39.661Z,3.53
2019-02-14T14:23:08.444Z,4.23
2019-02-14T14:25:37.280Z,3.90
2019-02-14T14:28:06.218Z,3.20
2019-02-14T14:30:35.020Z,3.80
2019-02-14T14:33:03.899Z,4.60
2019-02-14T14:35:33.057Z,4.70
2019-02-14T14:38:01.834Z,4.23
2019-02-14T14:40:32.562Z,4.12
2019-02-14T14:43:32.872Z,4.77
2019-02-14T14:46:15.116Z,4.40
2019-02-14T14:48:44.329Z,4.30
2019-02-14T14:51:13.126Z,4.80
2019-02-14T14:53:41.950Z,6.25
2019-02-14T14:56:10.762Z,5.80
2019-02-14T14:58:39.524Z,6.67
2019-02-14T15:01:08.469Z,6.83
2019-02-14T15:03:37.264Z,5.22
2019-02-14T15:06:06.110Z,5.60
2019-02-14T15:08:34.960Z,5.73
2019-02-14T15:11:03.836Z,6.50
2019-02-14T15:13:32.628Z,6.67
2019-02-14T15:16:01.421Z,6.80
2019-02-14T15:18:30.253Z,7.10
2019-02-14T15:20:59.196Z,6.10
2019-02-14T15:23:27.990Z,8.00
2019-02-14T15:25:56.763Z,7.97
2019-02-14T15:28:25.635Z,6.67
2019-02-14T15:30:54.554Z,7.73
2019-02-14T15:33:23.412Z,8.93
2019-02-14T15:35:52.195Z,7.43
2019-02-14T15:38:21.481Z,7.65
2019-02-14T15:40:50.387Z,6.33
2019-02-14T15:43:19.244Z,7.67
2019-02-14T15:45:48.132Z,6.93
2019-02-14T15:48:16.929Z,6.80
2019-02-14T15:50:45.710Z,7.30
2019-02-14T15:53:14.562Z,7.60
2019-02-14T15:55:43.897Z,6.80
2019-02-14T15:58:12.894Z,8.75
2019-02-14T16:00:41.851Z,7.73
2019-02-14T16:03:10.719Z,9.03
2019-02-14T16:05:40.348Z,8.10
2019-02-14T16:08:10.154Z,8.67
2019-02-14T16:10:38.943Z,8.73
2019-02-14T16:13:09.796Z,8.17
2019-02-14T16:15:38.249Z,8.93
2019-02-14T16:18:07.035Z,7.80
2019-02-14T16:20:35.840Z,8.57
2019-02-14T16:23:06.462Z,9.80
2019-02-14T16:25:35.261Z,10.50
2019-02-14T16:28:04.061Z,9.70
2019-02-14T16:30:33.399Z,9.40
2019-02-14T16:33:02.622Z,7.40
2019-02-14T16:35:31.587Z,8.73
2019-02-14T16:38:00.389Z,9.47
2019-02-14T16:40:37.991Z,8.83
2019-02-14T16:42:59.742Z,8.23
2019-02-14T16:45:28.548Z,8.63
2019-02-14T16:47:57.409Z,7.37
2019-02-14T16:50:26.196Z,9.17
2019-02-14T16:52:55.134Z,9.43
2019-02-14T16:55:24.030Z,9.70
2019-02-14T16:57:53.880Z,10.00
2019-02-14T17:00:22.907Z,9.80
2019-02-14T17:02:51.974Z,10.93
2019-02-14T17:05:20.881Z,9.58
2019-02-14T17:07:49.750Z,8.60
2019-02-14T17:10:18.668Z,9.73
2019-02-14T17:12:47.530Z,7.20
2019-02-14T17:15:16.422Z,8.00
2019-02-14T17:17:45.213Z,8.17
2019-02-14T17:20:14.272Z,11.17
2019-02-14T17:22:43.110Z,17.50
2019-02-14T17:25:12.045Z,11.47
2019-02-14T17:27:40.828Z,11.10
2019-02-14T17:30:09.791Z,12.10
2019-02-14T17:32:38.791Z,10.80
2019-02-14T17:35:07.828Z,12.67
2019-02-14T17:37:36.606Z,13.00
2019-02-14T17:40:05.944Z,10.30
2019-02-14T17:42:34.740Z,11.97
2019-02-14T17:45:03.892Z,11.43
2019-02-14T17:47:32.690Z,10.90
2019-02-14T17:50:01.464Z,9.63
2019-02-14T17:52:30.339Z,9.50
2019-02-14T17:54:59.283Z,9.90
2019-02-14T17:57:28.041Z,9.43
2019-02-14T17:59:56.842Z,10.83
2019-02-14T18:02:25.717Z,9.57
2019-02-14T18:04:54.516Z,10.03
2019-02-14T18:07:23.318Z,11.07
2019-02-14T18:09:52.220Z,11.90
2019-02-14T18:12:21.196Z,16.23
2019-02-14T18:14:50.329Z,11.40
2019-02-14T18:17:19.186Z,12.73
2019-02-14T18:19:48.033Z,14.23
2019-02-14T18:22:16.813Z,13.17
2019-02-14T18:24:46.018Z,12.37
2019-02-14T18:27:14.811Z,12.90
2019-02-14T18:29:43.624Z,11.43
2019-02-14T18:32:12.493Z,12.73
2019-02-14T18:34:41.293Z,11.83
2019-02-14T18:37:10.162Z,12.17
2019-02-14T18:39:39.067Z,9.90
2019-02-14T18:42:07.857Z,9.70
2019-02-14T18:44:36.630Z,9.57
2019-02-14T18:47:05.519Z,11.40
2019-02-14T18:49:34.303Z,11.67
2019-02-14T18:52:03.168Z,11.67
2019-02-14T18:54:31.950Z,12.20
2019-02-14T18:57:00.836Z,13.30
2019-02-14T18:59:30.975Z,9.70
2019-02-14T19:01:59.866Z,9.07
2019-02-14T19:04:28.655Z,10.88
2019-02-14T19:06:58.024Z,12.05
2019-02-14T19:09:29.047Z,12.03
2019-02-14T19:11:58.119Z,12.00
2019-02-14T19:14:26.932Z,12.35
2019-02-14T19:16:55.750Z,11.60
2019-02-14T19:19:24.557Z,12.00
2019-02-14T19:21:53.376Z,11.07
2019-02-14T19:24:22.266Z,9.80
2019-02-14T19:26:51.284Z,10.43
2019-02-14T19:29:20.104Z,10.53
2019-02-14T19:31:48.928Z,13.70
2019-02-14T19:34:17.719Z,9.98
2019-02-14T19:36:46.637Z,11.70
2019-02-14T19:39:15.506Z,10.97
2019-02-14T19:41:44.372Z,10.47
2019-02-14T19:44:13.160Z,9.13
2019-02-14T19:46:41.982Z,10.80
2019-02-14T19:49:10.964Z,11.67
2019-02-14T19:51:39.759Z,9.13
2019-02-14T19:54:08.632Z,10.07
2019-02-14T19:56:37.570Z,15.98
2019-02-14T19:59:06.443Z,14.30
2019-02-14T20:01:35.264Z,11.80
2019-02-14T20:04:04.130Z,12.00
2019-02-14T20:06:32.963Z,10.93
2019-02-14T20:09:01.745Z,6.72
2019-02-14T20:11:36.552Z,11.40
2019-02-14T20:14:01.051Z,12.70
2019-02-14T20:16:30.279Z,14.38
2019-02-14T20:18:59.074Z,12.28
2019-02-14T20:21:27.865Z,11.00
2019-02-14T20:23:57.272Z,15.30
2019-02-14T20:26:26.058Z,13.50
2019-02-14T20:28:54.865Z,14.20
2019-02-14T20:31:23.649Z,13.70
2019-02-14T20:33:52.436Z,13.90
2019-02-14T20:36:21.259Z,13.10
2019-02-14T20:38:50.141Z,14.43
2019-02-14T20:41:18.994Z,12.90
2019-02-14T20:43:47.811Z,12.73
2019-02-14T20:46:16.602Z,13.00
2019-02-14T20:48:45.602Z,14.07
2019-02-14T20:51:14.489Z,16.40
2019-02-14T20:53:43.360Z,14.40
2019-02-14T20:56:12.392Z,11.45
2019-02-14T20:58:41.335Z,11.70
2019-02-14T21:01:10.183Z,10.40
2019-02-14T21:03:38.991Z,11.10
2019-02-14T21:06:08.012Z,10.90
2019-02-14T21:08:38.080Z,10.90
2019-02-14T21:11:06.951Z,9.50
2019-02-14T21:13:35.740Z,9.80
2019-02-14T21:16:04.728Z,9.00
2019-02-14T21:18:33.644Z,10.40
2019-02-14T21:21:02.681Z,10.50
2019-02-14T21:23:31.629Z,10.70
2019-02-14T21:26:00.563Z,8.37
2019-02-14T21:28:29.660Z,10.10
2019-02-14T21:30:58.778Z,10.50
2019-02-14T21:33:27.938Z,12.83
2019-02-14T21:35:57.004Z,10.37
2019-02-14T21:38:26.164Z,11.20
2019-02-14T21:40:55.037Z,10.23
2019-02-14T21:43:23.883Z,10.50
2019-02-14T21:45:52.765Z,11.57
2019-02-14T21:48:21.647Z,12.75
2019-02-14T21:50:50.433Z,10.10
2019-02-14T21:53:19.247Z,11.90
2019-02-14T21:55:48.037Z,11.47
2019-02-14T21:58:16.846Z,11.78
2019-02-14T22:02:39.346Z,10.98
2019-02-14T22:05:09.028Z,17.85
2019-02-14T22:07:37.972Z,13.40
2019-02-14T22:10:07.552Z,11.53
2019-02-14T22:12:40.830Z,12.60
2019-02-14T22:15:09.551Z,14.07
2019-02-14T22:17:38.500Z,15.50
2019-02-14T22:20:07.725Z,13.60
2019-02-14T22:22:36.502Z,25.50
2019-02-14T22:25:05.626Z,20.07
2019-02-14T22:27:35.280Z,14.47
2019-02-14T22:30:06.311Z,14.70
2019-02-14T22:32:35.565Z,14.65
2019-02-14T22:35:04.685Z,12.15
2019-02-14T22:37:33.544Z,15.58
2019-02-14T22:40:02.373Z,13.10
2019-02-14T22:42:31.295Z,11.40
2019-02-14T22:45:00.119Z,13.40
2019-02-14T22:47:28.993Z,14.23
2019-02-14T22:49:57.931Z,14.03
2019-02-14T22:52:26.798Z,11.50
2019-02-14T22:54:55.762Z,11.40
2019-02-14T22:57:24.550Z,8.20
2019-02-14T22:59:53.354Z,11.40
2019-02-14T23:02:22.459Z,9.67
2019-02-14T23:04:51.281Z,8.67
2019-02-14T23:07:20.083Z,10.53
2019-02-14T23:09:49.033Z,8.60
2019-02-14T23:12:17.912Z,10.03
2019-02-14T23:14:46.740Z,11.10
2019-02-14T23:17:15.515Z,9.40
2019-02-14T23:19:44.333Z,11.95
2019-02-14T23:22:13.137Z,12.88
2019-02-14T23:24:41.940Z,10.17
2019-02-14T23:27:10.740Z,10.60
2019-02-14T23:29:39.538Z,10.20
2019-02-14T23:32:08.349Z,11.90
2019-02-14T23:34:38.074Z,10.32
2019-02-14T23:37:06.857Z,12.65
2019-02-14T23:39:35.648Z,12.03
2019-02-14T23:42:04.650Z,12.40
2019-02-14T23:44:33.480Z,12.77
2019-02-14T23:47:02.271Z,12.58
2019-02-14T23:49:31.142Z,12.03
2019-02-14T23:51:59.951Z,12.73
2019-02-14T23:54:28.747Z,13.60
2019-02-14T23:56:57.565Z,13.63
2019-02-14T23:59:26.516Z,14.53
